Time;durP1;ratioP1;P1;durP2;ratioP2;P2;SDS_P1;SDS_P2;PMS_P1;PMS_P2;Temp;Humidity;BMP_temperature;BMP_pressure;BME280_temperature;BME280_humidity;BME280_pressure;Samples;Min_cycle;Max_cycle;Signal;HPM_P1;HPM_P2
2022/06/10 00:00:20;;;;;;;;;;;;;;;13.08;69.81;97449.13;30002;982;1881;-62
2022/06/10 00:00:51;;;;;;;;;;;;;;;13.10;69.89;97441.47;30002;982;1881;-63
2022/06/10 00:01:22;;;;;;;;;;;;;;;13.13;69.45;97445.50;30002;982;1868;-61
2022/06/10 00:01:53;;;;;;;;;;;;;;;13.17;69.50;97449.28;30002;982;1873;-62
2022/06/10 00:02:23;;;;;;;;;;;;;;;13.19;69.17;97450.59;30002;983;1881;-60
2022/06/10 00:02:54;;;;;;;;;;;;;;;13.20;68.95;97446.75;30002;983;1881;-62
2022/06/10 00:03:27;;;;;;;;;;;;;;;13.19;69.41;97447.87;30002;983;1881;-61
2022/06/10 00:03:59;;;;;;;;;;;;;;;13.20;69.35;97451.41;30002;983;1881;-61
2022/06/10 00:04:32;;;;;;;;;;;;;;;13.19;69.26;97445.13;30002;983;1881;-63
2022/06/10 00:05:04;;;;;;;;;;;;;;;13.19;69.16;97445.13;30002;983;1881;-62
2022/06/10 00:05:36;;;;;;;;;;;;;;;13.18;69.14;97448.97;30002;983;1881;-61
2022/06/10 00:06:08;;;;;;;;;;;;;;;13.18;69.47;97445.44;30002;983;1868;-62
2022/06/10 00:06:39;;;;;;;;;;;;;;;13.18;69.47;97448.16;30002;983;1872;-62
2022/06/10 00:07:10;;;;;;;;;;;;;;;13.18;69.36;97445.44;30002;982;1882;-62
2022/06/10 00:07:44;;;;;;;;;;;;;;;13.17;69.80;97447.34;30002;982;1881;-62
2022/06/10 00:08:17;;;;;;;;;;;;;;;13.17;69.88;97452.81;30002;982;1881;-63
2022/06/10 00:08:48;;;;;;;;;;;;;;;13.18;69.89;97443.53;30002;982;1868;-61
2022/06/10 00:09:19;;;;;;;;;;;;;;;13.17;70.08;97447.34;30002;982;1873;-62
2022/06/10 00:09:50;;;;;;;;;;;;;;;13.15;70.29;97449.56;30002;983;1881;-60
2022/06/10 00:10:24;;;;;;;;;;;;;;;13.13;70.36;97446.31;30002;983;1881;-63
2022/06/10 00:10:56;;;;;;;;;;;;;;;13.13;69.84;97450.97;30002;983;1881;-63
2022/06/10 00:11:26;;;;;;;;;;;;;;;13.11;69.74;97439.53;30002;983;1881;-63
2022/06/10 00:11:57;;;;;;;;;;;;;;;13.10;69.90;97446.91;30002;983;1881;-62
2022/06/10 00:12:28;;;;;;;;;;;;;;;13.08;69.86;97451.84;30002;983;1881;-61
2022/06/10 00:12:59;;;;;;;;;;;;;;;13.05;70.33;97449.69;30002;983;1868;-63
2022/06/10 00:13:32;;;;;;;;;;;;;;;13.03;70.28;97452.72;30002;983;1872;-61
2022/06/10 00:14:02;;;;;;;;;;;;;;;13.02;70.56;97451.09;30002;982;1881;-62
2022/06/10 00:14:33;;;;;;;;;;;;;;;13.01;70.48;97452.19;30002;982;1881;-62
2022/06/10 00:15:05;;;;;;;;;;;;;;;12.98;70.62;97450.06;30002;982;1881;-62
2022/06/10 00:15:36;;;;;;;;;;;;;;;12.97;70.42;97448.44;30002;982;1881;-62
2022/06/10 00:16:08;;;;;;;;;;;;;;;12.96;70.14;97448.75;30002;982;1882;-63
2022/06/10 00:16:39;;;;;;;;;;;;;;;12.96;70.27;97451.47;30002;982;1869;-63
2022/06/10 00:17:10;;;;;;;;;;;;;;;12.97;70.22;97451.16;30002;983;1872;-62
2022/06/10 00:17:42;;;;;;;;;;;;;;;12.96;69.93;97449.53;30002;983;1881;-62
2022/06/10 00:18:13;;;;;;;;;;;;;;;12.95;69.96;97452.56;30002;983;1881;-63
2022/06/10 00:18:44;;;;;;;;;;;;;;;12.94;70.88;97453.66;30002;983;1881;-63
2022/06/10 00:19:15;;;;;;;;;;;;;;;12.91;70.91;97455.06;30002;983;1868;-62
2022/06/10 00:19:46;;;;;;;;;;;;;;;12.89;70.70;97451.00;30002;983;1872;-61
2022/06/10 00:20:18;;;;;;;;;;;;;;;12.87;70.82;97454.03;30002;987;1881;-62
2022/06/10 00:20:49;;;;;;;;;;;;;;;12.89;70.29;97453.72;30002;983;1881;-62
2022/06/10 00:21:20;;;;;;;;;;;;;;;12.88;70.08;97450.19;30001;982;1881;-62
2022/06/10 00:21:51;;;;;;;;;;;;;;;12.89;70.03;97451.00;30002;982;1812;-63
2022/06/10 00:22:22;;;;;;;;;;;;;;;12.88;70.30;97452.12;30001;973;1890;-61
2022/06/10 00:22:53;;;;;;;;;;;;;;;12.86;70.52;97454.31;30001;982;1881;-62
2022/06/10 00:23:24;;;;;;;;;;;;;;;12.87;70.70;97455.94;30001;982;1881;-63
2022/06/10 00:23:55;;;;;;;;;;;;;;;12.89;70.12;97456.47;30001;982;1882;-62
2022/06/10 00:24:26;;;;;;;;;;;;;;;12.92;69.93;97461.31;30001;982;1868;-63
2022/06/10 00:24:57;;;;;;;;;;;;;;;12.92;69.81;97448.50;30001;983;1859;-62
2022/06/10 00:25:28;;;;;;;;;;;;;;;12.93;69.55;97452.03;30001;983;1881;-63
2022/06/10 00:25:59;;;;;;;;;;;;;;;12.91;70.11;97454.25;30001;983;1881;-51
2022/06/10 00:26:30;;;;;;;;;;;;;;;12.85;71.02;97455.41;30001;983;1881;-62
2022/06/10 00:27:01;;;;;;;;;;;;;;;12.81;71.49;97455.22;30001;983;1881;-61
2022/06/10 00:27:32;;;;;;;;;;;;;;;12.79;71.69;97459.34;30001;983;1881;-62
2022/06/10 00:28:04;;;;;;;;;;;;;;;12.74;71.63;97455.59;30001;983;1881;-61
2022/06/10 00:28:35;;;;;;;;;;;;;;;12.73;71.59;97459.41;30001;983;1881;-61
2022/06/10 00:29:06;;;;;;;;;;;;;;;12.72;71.91;97460.50;30001;962;1901;-62
2022/06/10 00:29:41;;;;;;;;;;;;;;;12.71;71.68;97458.88;30002;982;1851;-62
2022/06/10 00:30:13;;;;;;;;;;;;;;;12.70;71.48;97457.25;30001;986;1859;-63
2022/06/10 00:30:44;;;;;;;;;;;;;;;12.70;71.42;97451.81;30001;982;1869;-63
2022/06/10 00:31:16;;;;;;;;;;;;;;;12.73;71.47;97453.97;30001;982;1877;-61
2022/06/10 00:31:46;;;;;;;;;;;;;;;12.75;71.06;97459.12;30001;982;1877;-61
2022/06/10 00:32:17;;;;;;;;;;;;;;;12.76;70.92;97447.13;30001;983;1876;-62
2022/06/10 00:32:49;;;;;;;;;;;;;;;12.78;70.89;97452.28;30001;983;1876;-61
2022/06/10 00:33:20;;;;;;;;;;;;;;;12.77;70.82;97446.03;30001;983;1877;-61
2022/06/10 00:33:51;;;;;;;;;;;;;;;12.80;70.98;97458.25;30001;983;1863;-62
2022/06/10 00:34:22;;;;;;;;;;;;;;;12.80;71.07;97448.16;30001;983;1868;-63
2022/06/10 00:34:53;;;;;;;;;;;;;;;12.81;71.31;97455.22;30001;983;1877;-62
2022/06/10 00:35:25;;;;;;;;;;;;;;;12.79;70.93;97451.97;30001;983;1877;-62
2022/06/10 00:35:55;;;;;;;;;;;;;;;12.80;71.31;97450.88;30001;983;1877;-62
2022/06/10 00:36:26;;;;;;;;;;;;;;;12.83;71.03;97452.19;30001;982;1864;-62
2022/06/10 00:36:57;;;;;;;;;;;;;;;12.83;71.14;97453.00;30001;982;1868;-62
2022/06/10 00:37:29;;;;;;;;;;;;;;;12.83;72.02;97457.63;30001;982;1877;-61
2022/06/10 00:38:00;;;;;;;;;;;;;;;12.81;71.88;97454.41;30001;982;1877;-62
2022/06/10 00:38:32;;;;;;;;;;;;;;;12.80;71.84;97455.53;30001;982;1877;-63
2022/06/10 00:39:03;;;;;;;;;;;;;;;12.79;71.77;97448.44;30001;982;1864;-61
2022/06/10 00:39:34;;;;;;;;;;;;;;;12.79;71.55;97459.34;30001;982;1869;-62
2022/06/10 00:40:06;;;;;;;;;;;;;;;12.79;71.40;97445.72;30001;983;1876;-63
2022/06/10 00:40:42;;;;;;;;;;;;;;;12.78;71.62;97450.38;30001;983;1877;-63
2022/06/10 00:41:13;;;;;;;;;;;;;;;12.80;71.20;97447.34;30001;983;1877;-62
2022/06/10 00:41:45;;;;;;;;;;;;;;;12.80;71.59;97459.06;30001;983;1877;-61
2022/06/10 00:42:15;;;;;;;;;;;;;;;12.80;72.01;97447.34;30001;983;1876;-63
2022/06/10 00:42:48;;;;;;;;;;;;;;;12.80;71.92;97452.78;30001;983;1877;-62
2022/06/10 00:43:20;;;;;;;;;;;;;;;12.80;71.51;97452.78;30001;983;1877;-61
2022/06/10 00:43:51;;;;;;;;;;;;;;;12.79;72.01;97456.63;30002;983;1762;-63
2022/06/10 00:44:53;;;;;;;;;;;;;;;12.78;71.73;97458.53;30001;982;1868;-62
2022/06/10 00:45:42;;;;;;;;;;;;;;;12.78;71.96;97455.00;30001;982;1860;-63
2022/06/10 00:46:25;;;;;;;;;;;;;;;12.72;71.14;97455.06;30001;982;1860;-62
2022/06/10 00:46:57;;;;;;;;;;;;;;;12.73;71.33;97453.97;30001;983;1876;-62
2022/06/10 00:47:36;;;;;;;;;;;;;;;12.73;71.26;97455.87;30001;983;1876;-62
2022/06/10 00:48:08;;;;;;;;;;;;;;;12.74;71.63;97454.78;30001;983;1831;-63
2022/06/10 00:49:08;;;;;;;;;;;;;;;12.73;71.66;97450.44;30001;983;1868;-62
2022/06/10 00:49:39;;;;;;;;;;;;;;;12.77;70.91;97458.81;30001;983;1859;-52
2022/06/10 00:50:18;;;;;;;;;;;;;;;12.76;70.86;97452.56;30001;983;1855;-63
2022/06/10 00:50:49;;;;;;;;;;;;;;;12.77;70.74;97451.47;30001;983;1877;-64
2022/06/10 00:51:38;;;;;;;;;;;;;;;12.79;70.32;97456.63;30001;983;1877;-63
2022/06/10 00:52:28;;;;;;;;;;;;;;;12.86;69.47;97451.59;30001;982;1868;-62
2022/06/10 00:53:01;;;;;;;;;;;;;;;12.93;69.32;97454.78;30001;982;1877;-60
2022/06/10 00:53:33;;;;;;;;;;;;;;;12.95;69.31;97455.28;30001;982;1877;-62
2022/06/10 00:54:17;;;;;;;;;;;;;;;12.95;69.23;97455.28;30001;983;1876;-63
2022/06/10 00:54:50;;;;;;;;;;;;;;;12.93;69.16;97446.59;30001;983;1863;-62
2022/06/10 00:55:28;;;;;;;;;;;;;;;12.93;69.24;97457.50;30001;983;1868;-61
2022/06/10 00:56:00;;;;;;;;;;;;;;;12.89;69.49;97459.19;30001;983;1876;-62
2022/06/10 00:56:31;;;;;;;;;;;;;;;12.88;70.13;97454.84;30001;983;1876;-62
2022/06/10 00:57:23;;;;;;;;;;;;;;;12.85;69.93;97449.97;30001;983;1864;-64
2022/06/10 00:58:00;;;;;;;;;;;;;;;12.83;69.94;97457.63;30001;983;1868;-62
2022/06/10 00:58:33;;;;;;;;;;;;;;;12.82;70.05;97456.03;30001;983;1877;-63
2022/06/10 00:59:22;;;;;;;;;;;;;;;12.79;70.32;97456.63;30001;982;1877;-61
2022/06/10 00:59:56;;;;;;;;;;;;;;;12.72;70.55;97444.16;30001;982;1877;-62
2022/06/10 01:00:30;;;;;;;;;;;;;;;12.74;70.16;97452.03;30001;982;1877;-61
2022/06/10 01:01:02;;;;;;;;;;;;;;;12.76;70.25;97458.00;30001;982;1864;-63
2022/06/10 01:01:34;;;;;;;;;;;;;;;12.77;69.86;97456.09;30001;982;1868;-62
2022/06/10 01:02:10;;;;;;;;;;;;;;;12.74;69.96;97455.59;30001;983;1876;-61
2022/06/10 01:02:42;;;;;;;;;;;;;;;12.73;70.19;97451.25;30001;983;1877;-63
2022/06/10 01:03:13;;;;;;;;;;;;;;;12.72;70.21;97452.34;30001;983;1877;-61
2022/06/10 01:03:44;;;;;;;;;;;;;;;12.74;70.06;97455.59;30001;983;1876;-63
2022/06/10 01:04:15;;;;;;;;;;;;;;;12.75;70.12;97446.31;30001;983;1781;-63
2022/06/10 01:04:46;;;;;;;;;;;;;;;12.75;70.42;97457.19;30001;983;1877;-62
2022/06/10 01:05:20;;;;;;;;;;;;;;;12.72;70.72;97449.63;30001;983;1877;-62
2022/06/10 01:05:51;;;;;;;;;;;;;;;12.71;70.52;97455.34;30001;982;1877;-62
2022/06/10 01:06:23;;;;;;;;;;;;;;;12.69;70.26;97452.91;30001;982;1864;-62
2022/06/10 01:06:55;;;;;;;;;;;;;;;12.66;70.21;97456.22;30001;982;1868;-62
2022/06/10 01:07:30;;;;;;;;;;;;;;;12.65;70.57;97457.31;30001;982;1877;-63
2022/06/10 01:08:03;;;;;;;;;;;;;;;12.64;69.96;97449.44;30001;982;1877;-62
2022/06/10 01:08:34;;;;;;;;;;;;;;;12.63;70.51;97456.00;30001;982;1877;-62
2022/06/10 01:09:05;;;;;;;;;;;;;;;12.60;70.22;97454.66;30001;982;1877;-62
2022/06/10 01:09:37;;;;;;;;;;;;;;;12.61;70.31;97459.00;30001;983;1876;-63
2022/06/10 01:10:09;;;;;;;;;;;;;;;12.61;70.02;97459.00;30001;983;1863;-63
2022/06/10 01:11:00;;;;;;;;;;;;;;;12.61;70.32;97461.72;30001;983;1868;-61
2022/06/10 01:11:37;;;;;;;;;;;;;;;12.64;70.12;97465.78;30001;984;1872;-63
2022/06/10 01:12:46;;;;;;;;;;;;;;;12.64;70.34;97458.44;30001;983;1863;-61
2022/06/10 01:13:52;;;;;;;;;;;;;;;12.62;70.75;97457.09;30001;983;1863;-62
2022/06/10 01:14:44;;;;;;;;;;;;;;;12.57;71.61;97459.88;30001;982;1872;-62
2022/06/10 01:15:37;;;;;;;;;;;;;;;12.54;71.41;97463.19;30001;982;1877;-63
2022/06/10 01:16:26;;;;;;;;;;;;;;;12.53;71.62;97459.66;30001;982;1877;-62
2022/06/10 01:17:18;;;;;;;;;;;;;;;12.52;72.07;97462.66;30001;973;1863;-62
2022/06/10 01:17:56;;;;;;;;;;;;;;;12.47;72.19;97458.13;30001;983;1855;-62
2022/06/10 01:18:50;;;;;;;;;;;;;;;12.48;71.75;97453.47;30001;983;1863;-63
2022/06/10 01:19:50;;;;;;;;;;;;;;;12.46;72.24;97456.50;30001;983;1863;-61
2022/06/10 01:20:55;;;;;;;;;;;;;;;12.41;72.59;97462.00;30001;983;1872;-62
2022/06/10 01:21:55;;;;;;;;;;;;;;;12.39;72.57;97456.03;30001;982;1873;-63
2022/06/10 01:22:46;;;;;;;;;;;;;;;12.38;72.59;97462.56;30001;982;1872;-62
2022/06/10 01:23:49;;;;;;;;;;;;;;;12.37;72.86;97460.97;30001;982;1860;-63
2022/06/10 01:24:38;;;;;;;;;;;;;;;12.34;72.70;97454.19;30001;983;1863;-62
2022/06/10 01:25:47;;;;;;;;;;;;;;;12.32;72.74;97452.84;30001;983;1868;-63
2022/06/10 01:27:48;;;;;;;;;;;;;;;12.28;73.11;97454.53;30001;983;1872;-62
2022/06/10 01:28:33;;;;;;;;;;;;;;;12.28;72.95;97465.41;30001;983;1855;-52
2022/06/10 01:29:23;;;;;;;;;;;;;;;12.28;73.33;97457.25;30001;982;1868;-62
2022/06/10 01:30:10;;;;;;;;;;;;;;;12.31;72.29;97452.03;30001;982;1877;-62
2022/06/10 01:31:15;;;;;;;;;;;;;;;12.30;72.52;97460.50;30001;982;1864;-63
2022/06/10 01:32:06;;;;;;;;;;;;;;;12.27;72.46;97455.63;30001;983;1862;-61
2022/06/10 01:33:01;;;;;;;;;;;;;;;12.24;72.85;97458.91;30001;983;1877;-63
2022/06/10 01:33:50;;;;;;;;;;;;;;;12.22;72.70;97455.69;30001;983;1876;-63
2022/06/10 01:34:33;;;;;;;;;;;;;;;12.22;72.79;97463.84;30001;983;1855;-53
2022/06/10 01:35:24;;;;;;;;;;;;;;;12.24;72.12;97458.91;30001;983;1868;-53
2022/06/10 01:36:02;;;;;;;;;;;;;;;12.26;71.92;97459.44;30001;983;1877;-62
2022/06/10 01:36:48;;;;;;;;;;;;;;;12.25;71.84;97452.38;30001;982;1864;-63
2022/06/10 01:37:39;;;;;;;;;;;;;;;12.26;71.90;97459.44;30001;982;1868;-63
2022/06/10 01:38:32;;;;;;;;;;;;;;;12.24;71.90;97462.44;30001;982;1877;-62
2022/06/10 01:39:08;;;;;;;;;;;;;;;12.21;72.45;97457.59;30001;983;1876;-63
2022/06/10 01:40:01;;;;;;;;;;;;;;;12.21;72.47;97467.66;30001;983;1876;-62
2022/06/10 01:40:54;;;;;;;;;;;;;;;12.19;72.52;97453.53;30001;983;1859;-62
2022/06/10 01:41:47;;;;;;;;;;;;;;;12.15;73.11;97466.09;30001;983;1868;-52
2022/06/10 01:42:30;;;;;;;;;;;;;;;12.11;73.01;97462.34;30001;983;1872;-62
2022/06/10 01:43:05;;;;;;;;;;;;;;;12.10;72.83;97460.72;30001;983;1877;-61
2022/06/10 01:43:41;;;;;;;;;;;;;;;12.10;73.24;97466.16;30001;982;1877;-52
2022/06/10 01:44:32;;;;;;;;;;;;;;;12.08;73.52;97470.00;30001;982;1877;-53
2022/06/10 01:45:11;;;;;;;;;;;;;;;12.07;73.71;97470.28;30001;982;1860;-52
2022/06/10 01:45:52;;;;;;;;;;;;;;;12.06;73.68;97465.94;30001;982;1868;-52
2022/06/10 01:46:28;;;;;;;;;;;;;;;12.06;73.50;97469.47;30001;983;1871;-52
2022/06/10 01:47:05;;;;;;;;;;;;;;;12.06;73.46;97466.75;30001;983;1877;-62
2022/06/10 01:47:39;;;;;;;;;;;;;;;12.07;73.69;97467.56;30001;983;1877;-52
2022/06/10 01:48:15;;;;;;;;;;;;;;;12.06;73.68;97466.75;30001;983;1863;-62
2022/06/10 01:48:51;;;;;;;;;;;;;;;12.03;73.71;97467.31;30001;987;1864;-63
2022/06/10 01:49:26;;;;;;;;;;;;;;;12.01;74.02;97464.06;30001;983;1877;-62
2022/06/10 01:50:19;;;;;;;;;;;;;;;11.98;74.56;97472.00;30001;983;1877;-62
2022/06/10 01:51:03;;;;;;;;;;;;;;;11.96;74.33;97471.47;30001;982;1859;-62
2022/06/10 01:51:40;;;;;;;;;;;;;;;11.95;74.67;97465.22;30001;982;1868;-63
2022/06/10 01:52:34;;;;;;;;;;;;;;;11.94;74.91;97466.31;30001;982;1877;-61
2022/06/10 01:53:08;;;;;;;;;;;;;;;11.95;74.46;97475.28;30001;982;1873;-64
2022/06/10 01:53:44;;;;;;;;;;;;;;;11.97;74.16;97467.66;30001;983;1876;-62
2022/06/10 01:54:31;;;;;;;;;;;;;;;12.00;73.36;97473.34;30001;983;1863;-63
2022/06/10 01:55:15;;;;;;;;;;;;;;;11.99;74.01;97460.81;30001;983;1868;-62
2022/06/10 01:56:07;;;;;;;;;;;;;;;11.97;74.04;97465.75;30001;983;1877;-62
2022/06/10 01:56:41;;;;;;;;;;;;;;;11.93;74.73;97467.41;30001;983;1872;-62
2022/06/10 01:57:15;;;;;;;;;;;;;;;11.90;74.57;97462.53;30001;983;1877;-52
2022/06/10 01:57:56;;;;;;;;;;;;;;;11.90;74.49;97472.59;30001;983;1877;-61
2022/06/10 01:58:30;;;;;;;;;;;;;;;11.88;74.88;97466.66;30001;982;1877;-62
2022/06/10 01:59:05;;;;;;;;;;;;;;;11.86;74.55;97466.94;30001;982;1864;-61
2022/06/10 01:59:40;;;;;;;;;;;;;;;11.85;74.90;97461.78;30001;982;1868;-52
2022/06/10 02:00:13;;;;;;;;;;;;;;;11.86;74.42;97466.94;30001;982;1877;-62
2022/06/10 02:00:46;;;;;;;;;;;;;;;11.85;74.47;97465.31;30001;982;1877;-62
2022/06/10 02:01:23;;;;;;;;;;;;;;;11.85;74.73;97464.50;30001;983;1876;-63
2022/06/10 02:01:59;;;;;;;;;;;;;;;11.86;74.92;97474.28;30001;983;1876;-52
2022/06/10 02:02:34;;;;;;;;;;;;;;;11.83;74.94;97467.50;30001;983;1877;-62
2022/06/10 02:03:24;;;;;;;;;;;;;;;11.80;74.90;97469.97;30001;983;1876;-52
2022/06/10 02:04:10;;;;;;;;;;;;;;;11.80;74.59;97468.06;30001;983;1859;-63
2022/06/10 02:04:51;;;;;;;;;;;;;;;11.80;75.27;97468.06;30001;983;1868;-62
2022/06/10 02:05:24;;;;;;;;;;;;;;;11.79;75.22;97466.44;30001;982;1877;-52
2022/06/10 02:06:03;;;;;;;;;;;;;;;11.78;75.23;97474.94;30001;982;1877;-52
2022/06/10 02:06:57;;;;;;;;;;;;;;;11.78;75.15;97473.00;30001;982;1877;-63
2022/06/10 02:07:32;;;;;;;;;;;;;;;11.81;74.60;97475.12;30001;982;1859;-61
2022/06/10 02:08:27;;;;;;;;;;;;;;;11.82;74.67;97470.50;30001;982;1869;-62
2022/06/10 02:09:05;;;;;;;;;;;;;;;11.80;74.44;97468.06;30001;983;1872;-62
2022/06/10 02:09:39;;;;;;;;;;;;;;;11.79;74.48;97469.16;30001;983;1877;-52
2022/06/10 02:10:15;;;;;;;;;;;;;;;11.80;74.47;97473.50;30001;983;1877;-61
2022/06/10 02:10:53;;;;;;;;;;;;;;;11.81;74.95;97477.03;30001;983;1876;-63
2022/06/10 02:11:27;;;;;;;;;;;;;;;11.79;74.97;97474.59;30001;983;1877;-63
2022/06/10 02:12:02;;;;;;;;;;;;;;;11.79;74.93;97471.88;30001;983;1877;-62
2022/06/10 02:12:38;;;;;;;;;;;;;;;11.79;75.47;97471.88;30001;968;1769;-63
2022/06/10 02:13:11;;;;;;;;;;;;;;;11.80;75.66;97473.50;30001;982;1868;-62
2022/06/10 02:13:47;;;;;;;;;;;;;;;11.79;75.13;97477.31;30001;982;1877;-53
2022/06/10 02:14:27;;;;;;;;;;;;;;;11.81;75.20;97475.12;30001;982;1877;-62
2022/06/10 02:15:00;;;;;;;;;;;;;;;11.78;75.43;97470.28;30001;982;1877;-63
2022/06/10 02:15:37;;;;;;;;;;;;;;;11.79;75.39;97473.78;30001;982;1864;-62
2022/06/10 02:16:10;;;;;;;;;;;;;;;11.78;75.02;97478.44;30001;982;1869;-63
2022/06/10 02:16:43;;;;;;;;;;;;;;;11.78;75.27;97470.28;30001;983;1876;-52
2022/06/10 02:17:15;;;;;;;;;;;;;;;11.80;74.91;97478.13;30001;983;1876;-52
2022/06/10 02:17:55;;;;;;;;;;;;;;;11.81;74.80;97480.56;30001;983;1876;-61
2022/06/10 02:18:31;;;;;;;;;;;;;;;11.83;74.78;97472.94;30001;983;1876;-61
2022/06/10 02:19:28;;;;;;;;;;;;;;;11.84;74.94;97476.47;30001;983;1864;-62
2022/06/10 02:20:00;;;;;;;;;;;;;;;11.82;75.24;97476.75;30001;983;1851;-63
2022/06/10 02:20:32;;;;;;;;;;;;;;;11.81;75.06;97475.12;30001;984;1872;-62
2022/06/10 02:21:06;;;;;;;;;;;;;;;11.83;75.07;97478.37;30001;982;1877;-52
2022/06/10 02:21:45;;;;;;;;;;;;;;;11.84;74.64;97480.00;30001;982;1877;-61
2022/06/10 02:22:23;;;;;;;;;;;;;;;11.85;74.62;97480.81;30001;982;1877;-62
2022/06/10 02:22:55;;;;;;;;;;;;;;;11.85;74.85;97481.62;30001;982;1877;-61
2022/06/10 02:23:29;;;;;;;;;;;;;;;11.85;74.60;97481.62;30001;983;1876;-61
2022/06/10 02:24:05;;;;;;;;;;;;;;;11.87;74.58;97479.44;30001;983;1877;-62
2022/06/10 02:24:39;;;;;;;;;;;;;;;11.89;74.10;97479.97;30001;983;1876;-62
2022/06/10 02:25:16;;;;;;;;;;;;;;;11.91;74.09;97482.38;30001;983;1863;-52
2022/06/10 02:25:51;;;;;;;;;;;;;;;11.90;74.69;97483.50;30001;983;1868;-63
2022/06/10 02:26:22;;;;;;;;;;;;;;;11.88;74.48;97480.25;30001;983;1877;-63
2022/06/10 02:26:55;;;;;;;;;;;;;;;11.85;74.63;97476.19;30001;983;1864;-61
2022/06/10 02:27:30;;;;;;;;;;;;;;;11.85;74.25;97481.62;30001;983;1855;-62
2022/06/10 02:28:04;;;;;;;;;;;;;;;11.84;74.50;97477.28;30001;982;1877;-62
2022/06/10 02:28:41;;;;;;;;;;;;;;;11.85;74.74;97487.06;30001;982;1877;-61
2022/06/10 02:29:16;;;;;;;;;;;;;;;11.85;74.40;97481.62;30001;982;1877;-52
2022/06/10 02:29:53;;;;;;;;;;;;;;;11.85;74.52;97484.34;30001;982;1877;-62
2022/06/10 02:30:34;;;;;;;;;;;;;;;11.86;74.46;97480.53;30001;982;1877;-62
2022/06/10 02:31:24;;;;;;;;;;;;;;;11.88;74.20;97480.25;30001;983;1863;-62
2022/06/10 02:31:56;;;;;;;;;;;;;;;11.87;74.65;97486.78;30001;983;1868;-62
2022/06/10 02:32:28;;;;;;;;;;;;;;;11.87;74.72;97484.06;30001;983;1877;-61
2022/06/10 02:33:00;;;;;;;;;;;;;;;11.86;74.58;97485.97;30001;983;1877;-63
2022/06/10 02:33:31;;;;;;;;;;;;;;;11.87;74.77;97484.06;30001;983;1876;-62
2022/06/10 02:34:03;;;;;;;;;;;;;;;11.87;74.41;97490.31;30001;983;1877;-63
2022/06/10 02:34:34;;;;;;;;;;;;;;;11.87;74.65;97489.50;30001;983;1877;-62
2022/06/10 02:35:07;;;;;;;;;;;;;;;11.86;74.44;97491.41;30001;983;1877;-63
2022/06/10 02:35:51;;;;;;;;;;;;;;;11.88;74.57;97491.13;30001;982;1864;-61
2022/06/10 02:36:25;;;;;;;;;;;;;;;11.87;74.74;97495.75;30001;982;1868;-52
2022/06/10 02:37:09;;;;;;;;;;;;;;;11.89;74.80;97492.75;30001;982;1877;-62
2022/06/10 02:37:59;;;;;;;;;;;;;;;11.91;74.29;97485.91;30001;982;1877;-52
2022/06/10 02:38:36;;;;;;;;;;;;;;;12.00;73.62;97489.66;30001;983;1868;-53
2022/06/10 02:39:12;;;;;;;;;;;;;;;12.03;73.41;97489.06;30001;980;1890;-52
2022/06/10 02:39:58;;;;;;;;;;;;;;;12.04;73.45;97490.69;30001;983;1877;-53
2022/06/10 02:40:31;;;;;;;;;;;;;;;12.05;73.39;97486.88;30001;983;1876;-53
2022/06/10 02:41:28;;;;;;;;;;;;;;;12.09;73.36;97492.56;30001;983;1863;-53
2022/06/10 02:42:14;;;;;;;;;;;;;;;12.12;73.24;97486.53;30001;983;1863;-52
2022/06/10 02:42:54;;;;;;;;;;;;;;;12.13;73.15;97487.34;30001;983;1877;-53
2022/06/10 02:43:35;;;;;;;;;;;;;;;12.14;73.22;97489.75;30001;982;1864;-54
2022/06/10 02:44:29;;;;;;;;;;;;;;;12.13;73.09;97487.34;30001;982;1868;-53
2022/06/10 02:45:05;;;;;;;;;;;;;;;12.14;73.17;97483.50;30001;982;1877;-53
2022/06/10 02:45:49;;;;;;;;;;;;;;;12.15;73.02;97487.84;30001;983;1876;-53
2022/06/10 02:46:33;;;;;;;;;;;;;;;12.14;72.85;97489.75;30001;983;1876;-52
2022/06/10 02:47:09;;;;;;;;;;;;;;;12.12;73.40;97493.91;30001;983;1877;-53
2022/06/10 02:47:57;;;;;;;;;;;;;;;12.08;73.88;97491.75;30001;983;1877;-53
2022/06/10 02:48:43;;;;;;;;;;;;;;;12.06;73.72;97488.50;30001;983;1864;-53
2022/06/10 02:49:15;;;;;;;;;;;;;;;12.05;73.55;97484.16;30001;983;1868;-52
2022/06/10 02:49:46;;;;;;;;;;;;;;;12.04;73.94;97490.69;30001;983;1877;-52
2022/06/10 02:50:17;;;;;;;;;;;;;;;12.03;73.78;97491.78;30001;983;1877;-53
2022/06/10 02:50:48;;;;;;;;;;;;;;;12.04;73.95;97490.69;30001;982;1877;-52
2022/06/10 02:51:21;;;;;;;;;;;;;;;12.05;73.56;97497.75;30001;982;1877;-61
2022/06/10 02:51:51;;;;;;;;;;;;;;;12.04;73.59;97490.69;30001;982;1877;-53
2022/06/10 02:52:26;;;;;;;;;;;;;;;12.04;73.70;97493.41;30001;972;1898;-62
2022/06/10 02:52:57;;;;;;;;;;;;;;;12.04;73.87;97490.69;30001;982;1864;-53
2022/06/10 02:53:31;;;;;;;;;;;;;;;12.04;73.75;97496.13;30001;983;1867;-53
2022/06/10 02:54:05;;;;;;;;;;;;;;;12.04;73.51;97490.69;30001;983;1863;-52
2022/06/10 02:54:38;;;;;;;;;;;;;;;12.04;73.60;97496.13;30001;983;1868;-54
2022/06/10 02:55:18;;;;;;;;;;;;;;;12.04;73.94;97500.75;30001;983;1863;-54
2022/06/10 02:55:50;;;;;;;;;;;;;;;12.03;73.72;97494.53;30001;983;1868;-53
2022/06/10 02:56:23;;;;;;;;;;;;;;;12.06;73.41;97499.38;30001;983;1877;-52
2022/06/10 02:56:54;;;;;;;;;;;;;;;12.08;73.47;97494.47;30001;983;1864;-52
2022/06/10 03:01:16;;;;;;;;;;;;;;;12.03;73.74;97499.97;30001;972;1897;-63
2022/06/10 03:02:13;;;;;;;;;;;;;;;12.05;73.57;97496.94;30001;983;1868;-53
2022/06/10 03:02:56;;;;;;;;;;;;;;;12.05;73.93;97496.94;30001;983;1859;-53
2022/06/10 03:03:42;;;;;;;;;;;;;;;12.05;73.76;97503.19;30001;983;1868;-52
2022/06/10 03:04:32;;;;;;;;;;;;;;;12.02;73.67;97503.78;30001;983;1864;-53
2022/06/10 03:05:09;;;;;;;;;;;;;;;11.97;73.96;97511.97;30001;982;1846;-53
2022/06/10 03:06:00;;;;;;;;;;;;;;;11.90;74.97;97500.63;30001;982;1877;-53
2022/06/10 03:06:53;;;;;;;;;;;;;;;11.82;74.70;97498.50;30001;982;1855;-52
2022/06/10 03:07:44;;;;;;;;;;;;;;;11.84;74.95;97507.19;30001;982;1864;-52
2022/06/10 03:08:29;;;;;;;;;;;;;;;11.84;74.77;97500.94;30001;985;1872;-52
2022/06/10 03:09:09;;;;;;;;;;;;;;;11.80;75.55;97517.00;30001;983;1876;-53
2022/06/10 03:10:09;;;;;;;;;;;;;;;11.76;76.29;97515.97;30001;983;1863;-52
2022/06/10 03:11:02;;;;;;;;;;;;;;;11.67;76.22;97513.03;30001;983;1863;-52
2022/06/10 03:11:51;;;;;;;;;;;;;;;11.67;75.84;97514.94;30001;983;1872;-53
2022/06/10 03:12:27;;;;;;;;;;;;;;;11.65;76.47;97525.28;30001;983;1868;-53
2022/06/10 03:13:16;;;;;;;;;;;;;;;11.63;76.82;97522.03;30001;982;1877;-52
2022/06/10 03:14:06;;;;;;;;;;;;;;;11.59;76.91;97529.13;30001;986;1856;-53
2022/06/10 03:14:43;;;;;;;;;;;;;;;11.55;77.67;97522.63;30001;982;1868;-54
2022/06/10 03:15:34;;;;;;;;;;;;;;;11.51;77.17;97519.66;30001;975;1879;-53
2022/06/10 03:16:19;;;;;;;;;;;;;;;11.52;77.25;97525.91;30001;983;1863;-52
2022/06/10 03:17:04;;;;;;;;;;;;;;;11.51;77.18;97521.56;30001;983;1876;-53
2022/06/10 03:17:44;;;;;;;;;;;;;;;11.49;77.47;97521.03;30001;983;1864;-53
2022/06/10 03:18:35;;;;;;;;;;;;;;;11.48;78.08;97524.84;30001;983;1868;-53
2022/06/10 03:19:25;;;;;;;;;;;;;;;11.43;78.10;97522.19;30001;983;1872;-52
2022/06/10 03:20:34;;;;;;;;;;;;;;;11.40;77.92;97518.94;30001;983;1868;-53
2022/06/10 03:21:34;;;;;;;;;;;;;;;11.40;77.59;97527.09;30001;982;1859;-53
2022/06/10 03:22:11;;;;;;;;;;;;;;;11.38;77.82;97521.12;30001;982;1864;-53
2022/06/10 03:23:02;;;;;;;;;;;;;;;11.37;77.88;97527.66;30001;982;1877;-53
2022/06/10 03:23:47;;;;;;;;;;;;;;;11.35;78.74;97523.59;30001;983;1872;-53
2022/06/10 03:24:44;;;;;;;;;;;;;;;11.32;78.93;97527.69;30001;983;1877;-53
2022/06/10 03:25:46;;;;;;;;;;;;;;;11.28;78.98;97529.34;30001;983;1859;-54
2022/06/10 03:26:23;;;;;;;;;;;;;;;11.20;79.10;97529.94;30001;983;1850;-53
2022/06/10 03:26:59;;;;;;;;;;;;;;;11.17;79.35;97527.78;30001;983;1877;-53
2022/06/10 03:27:54;;;;;;;;;;;;;;;11.17;78.97;97530.50;30001;983;1877;-53
2022/06/10 03:28:36;;;;;;;;;;;;;;;11.18;79.34;97531.31;30001;982;1877;-52
2022/06/10 03:29:42;;;;;;;;;;;;;;;11.18;79.00;97526.69;30001;982;1877;-52
2022/06/10 03:30:17;;;;;;;;;;;;;;;11.18;79.58;97529.41;30001;983;1859;-52
2022/06/10 03:30:56;;;;;;;;;;;;;;;11.16;79.65;97531.59;30001;983;1868;-53
2022/06/10 03:31:33;;;;;;;;;;;;;;;11.14;79.55;97535.69;30001;983;1876;-52
2022/06/10 03:32:13;;;;;;;;;;;;;;;11.11;79.51;97537.03;30001;983;1876;-53